Avoca, IA (51521)

14:25 CST le 27 février 2017 (GMT -0600)
Shelby, IA | | Change Station

Alt. 1329 ft 41.53 °N, 95.46 °W | Updated 16 seconds ago

Nuageux
Nuageux
48.5 ° F
Paraît 44 ° F
N
12.0
Vent Variable Vent de SE
Gusts 17.0 mph

Aujourd'hui
Haut(e) -- | Bas -- ° F
--% Risque de précip.
Hier
Haut(e) -- | Bas -- ° F
Precip. -- pouce
Pression 29.90 pouce
Visibilité 10.0 Miles terrestres
Nuages Ciel dégagé
Refroidissement éolien 44 ° F
Point de rosée 34 ° F
Humidité 56%
Précipitations 0.00 pouce
Profondeur de la couche neigeuse Non disponible.
6:58 AM 6:10 PM
Nouvelle lune, 2% visible
METAR KHNR 272015Z AUTO 16011KT 10SM CLR 09/M00 A2990 RMK AO2
Pression 29.90 pouce
Visibilité 10.0 Miles terrestres
Nuages Ciel dégagé
Refroidissement éolien 44 ° F
Point de rosée 34 ° F
Humidité 56%
Précipitations 0.00 pouce
Profondeur de la couche neigeuse Non disponible.
6:58 AM 6:10 PM
Nouvelle lune, 2% visible
METAR KHNR 272015Z AUTO 16011KT 10SM CLR 09/M00 A2990 RMK AO2

Get Your Daily Forecast Email!

Thanks for signing up!

Be on the lookout for a verification email in your inbox.

You'll start receiving the daily forecast at 8 AM.

×

10-Day Weather Forecast

Almanac

Astronomie

Feb. 27, 2017 Lever Coucher
Temps réel
Crépuscule civil
Crépuscule nautique
Crépuscule astronomique
Lune
Durée de lumière visible
Longueur du jour
Tomorrow will be .
, % of the Moon is Illuminated

Extrêmes aujourd'hui

State Highs State Lows

Community

WunderPhotos

Upload Photos

1,962,540 Photos téléchargées !

WunderBlog® & News

Nearby

Qualité de l'air

  Qualité de l'air Indice de la qualité de l'air Polluant
Not available.

Épaisseur de neige

Station Depth Altitude

Activité sismique

Ville Distance Mag. Time & Date
Minimum magnitude displayed is 2.5.

Températures des eaux côtières

Lieu Température

Stations

Stations météo à proximité

Emplacement de la station Température Refroidissement éolien Point de rosée Humidité Vent Precip. Alt. Mise à jour Type
                   

Watches & Warnings

There are currently no watches in effect.